createdAt,value
2022-07-30T08:09:40.942Z,94.6
2022-07-30T08:11:52.647Z,94.7
2022-07-30T08:16:51.265Z,95.8
2022-07-30T08:19:06.177Z,96.8
2022-07-30T08:21:20.983Z,98
2022-07-30T08:23:37.802Z,98.9
2022-07-30T08:25:50.680Z,99.9
2022-07-30T08:30:22.813Z,101.9
2022-07-30T08:32:37.691Z,103.1
2022-07-30T08:34:52.499Z,103.8
2022-07-30T08:37:07.659Z,104.8
2022-07-30T08:39:22.543Z,105.6
2022-07-30T08:41:37.301Z,106.4
2022-07-30T08:43:52.285Z,107.4
2022-07-30T08:46:07.301Z,108.6
2022-07-30T08:48:22.096Z,109.4
2022-07-30T08:50:37.120Z,110.3
2022-07-30T08:52:52.014Z,110.9
2022-07-30T08:55:07.078Z,111.8
2022-07-30T08:57:21.953Z,112.8
2022-07-30T08:59:53.160Z,113.3
2022-07-30T09:02:07.824Z,114.3
2022-07-30T09:04:19.838Z,114.9
2022-07-30T09:06:34.688Z,115.6
2022-07-30T09:08:49.619Z,116.6
2022-07-30T09:11:04.490Z,117.3
2022-07-30T09:13:19.329Z,118.1
2022-07-30T09:15:34.206Z,118.7
2022-07-30T09:17:49.017Z,119.7
2022-07-30T09:20:03.889Z,120.3
2022-07-30T09:22:18.719Z,120.9
2022-07-30T09:26:48.322Z,122.4
2022-07-30T09:29:03.241Z,122.7
2022-07-30T09:31:18.306Z,123.3
2022-07-30T09:33:32.392Z,123.9
2022-07-30T09:38:06.269Z,125.2
2022-07-30T09:40:17.694Z,125.7
2022-07-30T09:42:40.601Z,126.4
2022-07-30T09:44:55.452Z,126.8
2022-07-30T09:47:13.555Z,126.9
2022-07-30T09:49:29.168Z,127.6
2022-07-30T09:51:58.615Z,127.9
2022-07-30T09:54:13.705Z,127.9
2022-07-30T09:56:29.948Z,127.9
2022-07-30T10:03:12.501Z,127.9
2022-07-30T10:05:45.024Z,127.9
2022-07-30T10:07:59.840Z,127.9
2022-07-30T10:12:29.601Z,127.9
2022-07-30T10:14:44.432Z,127.9
2022-07-30T10:16:59.210Z,127.9
2022-07-30T10:19:16.069Z,127.9
2022-07-30T10:23:57.053Z,127.9
2022-07-30T10:26:12.189Z,127.9
2022-07-30T10:28:27.153Z,127.9
2022-07-30T10:30:41.930Z,127.9
2022-07-30T10:33:34.373Z,127.9
2022-07-30T10:35:52.260Z,127.9
2022-07-30T10:38:06.942Z,127.9
2022-07-30T10:40:23.130Z,127.9
2022-07-30T10:42:45.049Z,127.9
2022-07-30T10:44:59.860Z,127.9
2022-07-30T10:47:14.640Z,127.9
2022-07-30T10:49:29.607Z,127.9
2022-07-30T10:56:25.651Z,127.9
2022-07-30T10:58:40.051Z,127.9
2022-07-30T11:05:43.857Z,127.9
2022-07-30T11:07:49.498Z,127.9
2022-07-30T11:10:09.484Z,127.9
2022-07-30T11:17:35.235Z,127.9
2022-07-30T11:20:15.221Z,127.9
2022-07-30T11:22:30.048Z,127.9
2022-07-30T11:24:45.358Z,127.9
2022-07-30T11:27:07.766Z,127.9
2022-07-30T11:29:25.198Z,127.9
2022-07-30T11:32:05.276Z,127.9
2022-07-30T11:34:16.322Z,127.9
2022-07-30T11:36:31.142Z,127.9
2022-07-30T11:38:50.006Z,127.9
2022-07-30T11:41:04.923Z,127.9
2022-07-30T11:43:20.285Z,127.9
2022-07-30T11:47:53.687Z,127.9
2022-07-30T11:50:08.373Z,127.9
2022-07-30T11:52:23.298Z,127.9
2022-07-30T11:54:38.301Z,127.9
2022-07-30T11:56:52.990Z,127.9
2022-07-30T11:59:07.934Z,127.9
2022-07-30T12:01:22.814Z,127.9
2022-07-30T12:03:37.559Z,127.9
2022-07-30T12:05:52.732Z,127.9
2022-07-30T12:08:07.267Z,127.9
2022-07-30T12:10:34.549Z,127.9
2022-07-30T12:12:49.484Z,127.9
2022-07-30T12:15:04.259Z,127.9
2022-07-30T12:17:19.168Z,127.9
2022-07-30T12:19:47.220Z,127.9
2022-07-30T12:21:57.727Z,127.9
2022-07-30T12:24:12.661Z,127.9
2022-07-30T12:26:27.622Z,127.9
2022-07-30T12:30:57.059Z,127.9
2022-07-30T12:33:11.937Z,127.9
2022-07-30T12:35:26.833Z,127.9
2022-07-30T12:37:41.629Z,127.9
2022-07-30T12:39:56.804Z,127.9
2022-07-30T12:42:11.310Z,127.9
2022-07-30T12:44:26.257Z,127.9
2022-07-30T12:46:41.104Z,127.9
2022-07-30T12:48:56.080Z,127.9
2022-07-30T12:51:10.742Z,127.9
2022-07-30T12:55:40.549Z,127.9
2022-07-30T12:57:55.367Z,127.9
2022-07-30T13:00:10.125Z,127.9
2022-07-30T13:02:24.958Z,127.9
2022-07-30T13:07:13.028Z,127.9
2022-07-30T13:09:27.829Z,127.9
2022-07-30T13:11:42.647Z,127.9
2022-07-30T13:13:57.487Z,127.9
2022-07-30T13:16:12.610Z,127.9
2022-07-30T13:18:27.169Z,127.9
2022-07-30T13:20:42.014Z,127.9
2022-07-30T13:23:01.588Z,127.9
2022-07-30T13:25:11.762Z,127.9
2022-07-30T13:27:26.619Z,127.9
2022-07-30T13:29:41.572Z,127.9
2022-07-30T13:31:56.334Z,127.9
2022-07-30T13:34:11.128Z,127.9
2022-07-30T13:36:26.018Z,127.9
2022-07-30T13:40:59.156Z,127.9
2022-07-30T13:43:10.557Z,127.9
2022-07-30T13:45:25.421Z,127.9
2022-07-30T13:47:40.352Z,127.9
2022-07-30T13:49:55.120Z,127.9
2022-07-30T13:52:10.111Z,127.9
2022-07-30T13:54:24.752Z,127.9
2022-07-30T13:56:40.694Z,127.9
2022-07-30T13:58:54.543Z,127.9
2022-07-30T14:01:09.461Z,127.9
2022-07-30T14:03:24.247Z,127.9
2022-07-30T14:05:41.918Z,127.9
2022-07-30T14:07:54.127Z,127.9
2022-07-30T14:14:38.433Z,127.9
2022-07-30T14:17:07.754Z,127.9
2022-07-30T14:19:24.726Z,127.9
2022-07-30T14:21:39.387Z,127.9
2022-07-30T14:23:54.284Z,127.9
2022-07-30T14:26:09.127Z,127.9
2022-07-30T14:28:24.170Z,127.3
2022-07-30T14:30:38.830Z,126.4
2022-07-30T14:32:58.378Z,125.6
2022-07-30T14:35:08.627Z,124.8
2022-07-30T14:37:23.378Z,124.1
2022-07-30T14:39:38.306Z,123.2
2022-07-30T14:41:55.872Z,122.7
2022-07-30T14:44:08.111Z,121.8
2022-07-30T14:46:22.824Z,121.3
2022-07-30T14:51:17.831Z,120.9
2022-07-30T14:53:28.701Z,120.1
2022-07-30T14:55:43.613Z,119.6
2022-07-30T14:57:58.628Z,119
2022-07-30T15:00:13.240Z,118.5
2022-07-30T15:02:28.194Z,117.8
2022-07-30T15:06:57.837Z,116.4
2022-07-30T15:09:12.793Z,114.9
2022-07-30T15:11:44.827Z,114.1
2022-07-30T15:14:24.827Z,113.5
2022-07-30T15:16:39.679Z,113.1
2022-07-30T15:18:54.553Z,113.1
2022-07-30T15:21:09.382Z,112.1
2022-07-30T15:23:24.081Z,111.4
2022-07-30T15:25:39.202Z,110.9
2022-07-30T15:27:54.051Z,110.3
2022-07-30T15:30:08.903Z,109.9
2022-07-30T15:32:24.346Z,109.5
2022-07-30T15:36:53.281Z,108.5
2022-07-30T15:39:08.221Z,107.6
2022-07-30T15:41:22.942Z,107
2022-07-30T15:43:37.874Z,106.6
2022-07-30T15:46:12.149Z,106.3
2022-07-30T15:48:28.710Z,105.6
2022-07-30T15:50:43.489Z,105.3
2022-07-30T15:52:58.295Z,104.8
2022-07-30T15:55:21.447Z,104
2022-07-30T15:57:35.554Z,103.5
2022-07-30T15:59:50.960Z,102.8
2022-07-30T16:02:10.482Z,102.3
2022-07-30T16:09:25.095Z,100
2022-07-30T16:11:46.859Z,99
2022-07-30T16:14:00.787Z,98.1
